createdAt,value
2022-09-03T00:00:31.000Z,61.3
2022-09-03T00:02:01.000Z,59.6
2022-09-03T00:03:32.000Z,59.6
2022-09-03T00:04:49.000Z,59
2022-09-03T00:06:06.000Z,59.4
2022-09-03T00:07:36.000Z,59.4
2022-09-03T00:09:07.000Z,60.7
2022-09-03T00:10:37.000Z,60.4
2022-09-03T00:12:08.000Z,60.3
2022-09-03T00:13:38.000Z,60.5
2022-09-03T00:15:09.000Z,61.5
2022-09-03T00:16:39.000Z,62.1
2022-09-03T00:18:10.000Z,60.1
2022-09-03T00:19:40.000Z,61
2022-09-03T00:20:57.000Z,61.4
2022-09-03T00:22:14.000Z,62.9
2022-09-03T00:23:45.000Z,62.6
2022-09-03T00:25:15.000Z,62.2
2022-09-03T00:26:46.000Z,63.3
2022-09-03T00:28:16.000Z,62.9
2022-09-03T00:29:47.000Z,63.3
2022-09-03T00:31:17.000Z,63.9
2022-09-03T00:32:48.000Z,61.7
2022-09-03T00:34:18.000Z,62.4
2022-09-03T00:35:49.000Z,63
2022-09-03T00:38:23.000Z,61.5
2022-09-03T00:39:53.000Z,63.2
2022-09-03T00:41:24.000Z,63.1
2022-09-03T00:42:54.000Z,63.1
2022-09-03T00:44:25.000Z,63.1
2022-09-03T00:45:55.000Z,63.8
2022-09-03T00:47:26.000Z,64.1
2022-09-03T00:48:56.000Z,61.8
2022-09-03T00:50:27.000Z,63.9
2022-09-03T00:51:57.000Z,64.5
2022-09-03T00:53:14.000Z,66.7
2022-09-03T00:54:31.000Z,65.8
2022-09-03T00:56:02.000Z,66.5
2022-09-03T00:57:32.000Z,66.5
2022-09-03T00:59:03.000Z,66.1
2022-09-03T01:00:33.000Z,65.3
2022-09-03T01:02:04.000Z,65.3
2022-09-03T01:03:34.000Z,65.6
2022-09-03T01:05:05.000Z,65.2
2022-09-03T01:06:35.000Z,65.3
2022-09-03T01:08:06.000Z,65.5
2022-09-03T01:09:22.000Z,65.6
2022-09-03T01:10:39.000Z,65.8
2022-09-03T01:12:10.000Z,66.4
2022-09-03T01:13:40.000Z,66.4
2022-09-03T01:15:11.000Z,66.5
2022-09-03T01:16:41.000Z,66.3
2022-09-03T01:18:12.000Z,66.4
2022-09-03T01:19:42.000Z,66.6
2022-09-03T01:21:13.000Z,66.1
2022-09-03T01:22:43.000Z,66.3
2022-09-03T01:24:14.000Z,65.9
2022-09-03T01:25:31.000Z,65.3
2022-09-03T01:26:48.000Z,65.9
2022-09-03T01:28:18.000Z,65.3
2022-09-03T01:29:49.000Z,66.5
2022-09-03T01:31:19.000Z,67.5
2022-09-03T01:32:50.000Z,66.4
2022-09-03T01:34:20.000Z,67.7
2022-09-03T01:35:51.000Z,65.7
2022-09-03T01:37:21.000Z,69.9
2022-09-03T01:38:52.000Z,67.5
2022-09-03T01:40:31.000Z,70.9
2022-09-03T01:41:48.000Z,71.6
2022-09-03T01:43:05.000Z,68.9
2022-09-03T01:44:35.000Z,68.5
2022-09-03T01:46:06.000Z,70.3
2022-09-03T01:47:36.000Z,66.5
2022-09-03T01:49:07.000Z,70.4
2022-09-03T01:50:37.000Z,68.8
2022-09-03T01:52:08.000Z,68.2
2022-09-03T01:53:38.000Z,70
2022-09-03T01:55:09.000Z,69.6
2022-09-03T01:56:39.000Z,69.8
2022-09-03T01:57:56.000Z,68.5
2022-09-03T01:59:13.000Z,65.4
2022-09-03T02:00:43.000Z,67.5
2022-09-03T02:02:14.000Z,65.9
2022-09-03T02:03:44.000Z,67.8
2022-09-03T02:05:15.000Z,67.1
2022-09-03T02:06:45.000Z,67.8
2022-09-03T02:08:16.000Z,66.5
2022-09-03T02:09:46.000Z,65.7
2022-09-03T02:11:17.000Z,66
2022-09-03T02:12:47.000Z,66.2
2022-09-03T02:14:04.000Z,66.4
2022-09-03T02:15:21.000Z,67.1
2022-09-03T02:16:52.000Z,66.8
2022-09-03T02:18:22.000Z,65.3
2022-09-03T02:19:53.000Z,64.8
2022-09-03T02:21:23.000Z,66.2
2022-09-03T02:22:54.000Z,65.1
2022-09-03T02:24:24.000Z,64.6
2022-09-03T02:25:55.000Z,64.7
2022-09-03T02:27:25.000Z,63.9
2022-09-03T02:28:56.000Z,64.1
2022-09-03T02:30:13.000Z,64.6
2022-09-03T02:31:30.000Z,63.6
2022-09-03T02:33:00.000Z,65.5
2022-09-03T02:34:31.000Z,66.5
2022-09-03T02:36:01.000Z,64.7
2022-09-03T02:37:32.000Z,65.1
2022-09-03T02:39:02.000Z,65.9
2022-09-03T02:40:33.000Z,65.9
2022-09-03T02:42:03.000Z,64.5
2022-09-03T02:43:34.000Z,64.2
2022-09-03T02:45:04.000Z,64.2
2022-09-03T02:46:21.000Z,65.8
2022-09-03T02:49:09.000Z,64.4
2022-09-03T02:50:39.000Z,65.5
2022-09-03T02:52:10.000Z,64.8
2022-09-03T02:53:40.000Z,64.7
2022-09-03T02:55:11.000Z,64.2
2022-09-03T02:56:41.000Z,64
2022-09-03T02:58:12.000Z,65
2022-09-03T02:59:42.000Z,67.3
2022-09-03T03:01:13.000Z,65.3
2022-09-03T03:02:30.000Z,64.9
2022-09-03T03:03:47.000Z,65
2022-09-03T03:05:17.000Z,65.2
2022-09-03T03:06:48.000Z,66.8
2022-09-03T03:08:18.000Z,67.6
2022-09-03T03:09:49.000Z,66.5
2022-09-03T03:11:19.000Z,65.6
2022-09-03T03:12:50.000Z,64.8
2022-09-03T03:14:20.000Z,65.7
2022-09-03T03:15:51.000Z,65.3
2022-09-03T03:17:21.000Z,65.8
2022-09-03T03:18:38.000Z,65.9
2022-09-03T03:19:55.000Z,65.5
2022-09-03T03:21:26.000Z,65.4
2022-09-03T03:22:56.000Z,65.8
2022-09-03T03:24:27.000Z,65.6
2022-09-03T03:25:57.000Z,65.2
2022-09-03T03:27:28.000Z,65.8
2022-09-03T03:28:58.000Z,65.7
2022-09-03T03:30:29.000Z,65.9
2022-09-03T03:32:00.000Z,65.8
2022-09-03T03:33:30.000Z,66
2022-09-03T03:34:47.000Z,66.3
2022-09-03T03:36:04.000Z,66.3
2022-09-03T03:37:34.000Z,66.3
2022-09-03T03:39:05.000Z,65.8
2022-09-03T03:40:36.000Z,66.5
2022-09-03T03:42:06.000Z,66.7
2022-09-03T03:43:37.000Z,66.7
2022-09-03T03:45:07.000Z,66.6
2022-09-03T03:46:38.000Z,66.7
2022-09-03T03:48:08.000Z,66.8
2022-09-03T03:49:39.000Z,67.1
2022-09-03T03:50:56.000Z,67.5
2022-09-03T03:52:13.000Z,68.4
2022-09-03T03:53:43.000Z,67.8
2022-09-03T03:55:14.000Z,67.4
2022-09-03T03:56:44.000Z,67.5
2022-09-03T03:58:15.000Z,67.5
2022-09-03T03:59:45.000Z,68.2
2022-09-03T04:01:16.000Z,67.5
2022-09-03T04:02:46.000Z,68
2022-09-03T04:04:17.000Z,67.5
2022-09-03T04:05:47.000Z,67.4
2022-09-03T04:07:04.000Z,67.6
2022-09-03T04:08:21.000Z,68
2022-09-03T04:09:52.000Z,68.2
2022-09-03T04:11:22.000Z,67.9
2022-09-03T04:12:53.000Z,68.5
2022-09-03T04:14:23.000Z,68.2
2022-09-03T04:15:54.000Z,68.5
2022-09-03T04:17:24.000Z,68.7
2022-09-03T04:18:55.000Z,68.5
2022-09-03T04:20:25.000Z,69.4
2022-09-03T04:21:56.000Z,68.2
2022-09-03T04:23:13.000Z,68.8
2022-09-03T04:24:30.000Z,68.8
2022-09-03T04:26:00.000Z,68
2022-09-03T04:27:31.000Z,69.1
2022-09-03T04:29:01.000Z,69.2
2022-09-03T04:30:32.000Z,68.8
2022-09-03T04:32:02.000Z,68.8
2022-09-03T04:33:33.000Z,69.4
2022-09-03T04:35:03.000Z,69.7
2022-09-03T04:36:34.000Z,69.4
2022-09-03T04:38:04.000Z,68.8
2022-09-03T04:39:21.000Z,68.8
2022-09-03T04:40:38.000Z,68.8
2022-09-03T04:42:09.000Z,68.8
2022-09-03T04:43:39.000Z,68.6
2022-09-03T04:45:10.000Z,69
2022-09-03T04:46:40.000Z,68.7
2022-09-03T04:48:11.000Z,68.9
2022-09-03T04:49:41.000Z,69
2022-09-03T04:51:12.000Z,69.7
2022-09-03T04:52:42.000Z,69.2
2022-09-03T04:54:13.000Z,69.1
2022-09-03T04:55:30.000Z,70.1
2022-09-03T04:56:47.000Z,69.2
2022-09-03T04:58:17.000Z,69.8
2022-09-03T04:59:48.000Z,70
2022-09-03T05:01:18.000Z,69.4
2022-09-03T05:04:19.000Z,69.4
2022-09-03T05:05:50.000Z,68.8
2022-09-03T05:07:20.000Z,69.3
2022-09-03T05:08:51.000Z,69.1
2022-09-03T05:10:21.000Z,68.7
2022-09-03T05:11:38.000Z,68.8
2022-09-03T05:12:55.000Z,69.4
2022-09-03T05:14:26.000Z,69.7
2022-09-03T05:15:56.000Z,68.8
2022-09-03T05:17:27.000Z,69
2022-09-03T05:18:57.000Z,69
2022-09-03T05:20:28.000Z,68.8
2022-09-03T05:21:58.000Z,69.2
2022-09-03T05:23:29.000Z,68.8
2022-09-03T05:24:59.000Z,68.8
2022-09-03T05:26:30.000Z,69
2022-09-03T05:27:47.000Z,68.5
2022-09-03T05:29:04.000Z,68.7
2022-09-03T05:30:34.000Z,68.3
2022-09-03T05:32:05.000Z,68.4
2022-09-03T05:33:35.000Z,68.6
2022-09-03T05:35:06.000Z,68.3
2022-09-03T05:36:36.000Z,68.6
2022-09-03T05:38:07.000Z,68.1
2022-09-03T05:39:37.000Z,68.5
2022-09-03T05:41:08.000Z,68.5
2022-09-03T05:42:38.000Z,69.1
2022-09-03T05:43:55.000Z,68.4
2022-09-03T05:45:12.000Z,67.9
2022-09-03T05:46:43.000Z,67.8
2022-09-03T05:48:13.000Z,68
2022-09-03T05:49:44.000Z,67.6
2022-09-03T05:51:14.000Z,67.3
2022-09-03T05:52:45.000Z,67.3
2022-09-03T05:54:15.000Z,67.3
2022-09-03T05:57:16.000Z,66.9
2022-09-03T05:58:47.000Z,67.5
2022-09-03T06:00:04.000Z,67.2
2022-09-03T06:01:21.000Z,67.4
2022-09-03T06:02:51.000Z,67.3
2022-09-03T06:04:22.000Z,66.7
2022-09-03T06:05:52.000Z,66.5
2022-09-03T06:07:23.000Z,66.1
2022-09-03T06:08:53.000Z,66.5
2022-09-03T06:10:24.000Z,66
2022-09-03T06:11:54.000Z,65.6
2022-09-03T06:13:25.000Z,66.1
2022-09-03T06:14:56.000Z,66.2
2022-09-03T06:16:12.000Z,65.2
2022-09-03T06:17:29.523Z,65.7
2022-09-03T06:19:00.000Z,65.8
2022-09-03T06:20:30.000Z,65.8
2022-09-03T06:22:01.000Z,65.8
2022-09-03T06:23:31.000Z,65.1
2022-09-03T06:25:02.000Z,65.1
2022-09-03T06:26:32.000Z,65.4
2022-09-03T06:28:03.000Z,65.1
2022-09-03T06:29:33.000Z,65.1
2022-09-03T06:31:04.000Z,65.2
2022-09-03T06:32:21.000Z,64.8
2022-09-03T06:33:37.000Z,65
2022-09-03T06:35:16.000Z,65.2
2022-09-03T06:36:46.000Z,64.6
2022-09-03T06:38:17.000Z,64.3
2022-09-03T06:39:47.000Z,65.4
2022-09-03T06:41:18.000Z,64.2
2022-09-03T06:42:48.000Z,63.7
2022-09-03T06:44:19.000Z,64
2022-09-03T06:45:49.000Z,63.3
2022-09-03T06:47:20.000Z,63.9
2022-09-03T06:48:37.000Z,63.4
2022-09-03T06:49:54.000Z,62.9
2022-09-03T06:51:24.000Z,62.6
2022-09-03T06:52:55.000Z,63.1
2022-09-03T06:54:25.000Z,62.7
2022-09-03T06:55:56.000Z,62.1
2022-09-03T06:57:26.000Z,62
2022-09-03T06:58:57.000Z,62.3
2022-09-03T07:00:27.000Z,61.3
2022-09-03T07:01:58.000Z,60.8
2022-09-03T07:03:28.000Z,61.6
2022-09-03T07:04:45.000Z,61.4
2022-09-03T07:07:33.000Z,60.7
2022-09-03T07:09:03.000Z,60.9
2022-09-03T07:10:34.000Z,60
2022-09-03T07:12:04.000Z,61
2022-09-03T07:13:35.000Z,60.6
2022-09-03T07:15:05.000Z,59.7
2022-09-03T07:16:36.000Z,59
2022-09-03T07:18:07.000Z,59.2
2022-09-03T07:19:37.000Z,58.7
2022-09-03T07:20:54.000Z,59.1
2022-09-03T07:22:11.000Z,57.8
2022-09-03T07:23:41.000Z,58.1
2022-09-03T07:25:12.000Z,58.4
2022-09-03T07:26:43.000Z,58.5
2022-09-03T07:28:13.000Z,57.5
2022-09-03T07:29:44.000Z,58
2022-09-03T07:31:14.000Z,57.9
2022-09-03T07:32:45.000Z,58.3
2022-09-03T07:34:15.000Z,58.1
2022-09-03T07:35:46.000Z,57.8
2022-09-03T07:37:03.000Z,57.3
2022-09-03T07:38:20.000Z,57
2022-09-03T07:39:50.000Z,56.9
2022-09-03T07:41:21.000Z,57
2022-09-03T07:42:51.000Z,57.1
2022-09-03T07:44:22.000Z,57.3
2022-09-03T07:45:52.000Z,56.9
2022-09-03T07:47:23.000Z,57.3
2022-09-03T07:48:53.000Z,56.6
2022-09-03T07:50:24.000Z,56.9
2022-09-03T07:51:54.000Z,56.4
2022-09-03T07:53:11.000Z,57
2022-09-03T07:54:28.000Z,56
2022-09-03T07:55:59.000Z,55.9
2022-09-03T07:57:29.000Z,55.8
2022-09-03T07:59:00.000Z,55.6
2022-09-03T08:00:30.000Z,55.5
2022-09-03T08:02:01.000Z,56.2
2022-09-03T08:03:31.000Z,54.6
2022-09-03T08:05:02.000Z,54.8
2022-09-03T08:06:32.000Z,54.6
2022-09-03T08:08:03.000Z,54.1
2022-09-03T08:10:37.000Z,53.5
2022-09-03T08:12:07.000Z,52.6
2022-09-03T08:15:08.000Z,51.2
2022-09-03T08:16:39.000Z,49.6
2022-09-03T08:18:09.000Z,49.1
2022-09-03T08:19:40.000Z,47.5
2022-09-03T08:21:10.000Z,47.3
2022-09-03T08:22:41.000Z,45.7
2022-09-03T08:24:11.000Z,45.9
2022-09-03T08:25:28.000Z,45.7
2022-09-03T08:26:45.000Z,45.4
2022-09-03T08:28:16.000Z,45.4
2022-09-03T08:29:46.000Z,45.1
2022-09-03T08:31:17.000Z,44.7
2022-09-03T08:32:47.000Z,43.7
2022-09-03T08:34:18.000Z,43.3
2022-09-03T08:35:48.000Z,43.2
2022-09-03T08:37:19.000Z,42.7
2022-09-03T08:38:49.000Z,42.3
2022-09-03T08:41:37.000Z,41.9
2022-09-03T08:42:54.000Z,41.7
2022-09-03T08:44:24.000Z,42.6
2022-09-03T08:45:55.000Z,42.2
2022-09-03T08:47:25.000Z,42.8
2022-09-03T08:48:56.000Z,42.8
2022-09-03T08:50:26.000Z,43
2022-09-03T08:51:57.000Z,42.4
2022-09-03T08:53:27.000Z,42.1
2022-09-03T08:54:58.000Z,41.9
2022-09-03T08:56:28.000Z,41.6
2022-09-03T08:57:45.000Z,41.5
2022-09-03T08:59:02.000Z,40.7
2022-09-03T09:00:33.000Z,40
2022-09-03T09:02:03.000Z,40.1
2022-09-03T09:03:34.000Z,41.5
2022-09-03T09:05:04.000Z,41.9
2022-09-03T09:06:35.000Z,42
2022-09-03T09:08:05.000Z,43.4
2022-09-03T09:09:36.000Z,43.7
2022-09-03T09:11:06.000Z,43.8
2022-09-03T09:12:37.000Z,42.2
2022-09-03T09:13:54.000Z,42
2022-09-03T09:15:11.000Z,41.2
2022-09-03T09:16:41.000Z,41.9
2022-09-03T09:18:12.000Z,41.5
2022-09-03T09:19:42.000Z,41.9
2022-09-03T09:21:13.000Z,42.7
2022-09-03T09:22:43.000Z,42.9
2022-09-03T09:24:14.000Z,43.5
2022-09-03T09:25:44.000Z,45
2022-09-03T09:27:15.000Z,45
2022-09-03T09:28:45.000Z,45.3
2022-09-03T09:30:02.000Z,46
2022-09-03T09:31:19.000Z,45.8
2022-09-03T09:32:50.000Z,46.5
2022-09-03T09:35:51.000Z,45.4
2022-09-03T09:37:21.000Z,45.3
2022-09-03T09:38:52.000Z,45
2022-09-03T09:40:22.000Z,45
2022-09-03T09:41:53.000Z,44.6
2022-09-03T09:43:23.000Z,43.7
2022-09-03T09:44:54.000Z,44.6
2022-09-03T09:46:11.000Z,43.5
2022-09-03T09:47:28.000Z,44.4
2022-09-03T09:48:58.000Z,44
2022-09-03T09:51:59.000Z,43.9
2022-09-03T09:53:30.000Z,43.6
2022-09-03T09:54:45.000Z,42.6
2022-09-03T09:56:02.000Z,43.3
2022-09-03T09:57:18.000Z,42
2022-09-03T09:58:35.000Z,41.3
2022-09-03T09:59:51.000Z,39.1
2022-09-03T10:01:08.000Z,39.2
2022-09-03T10:02:24.000Z,38.2
2022-09-03T10:03:41.000Z,37.6
2022-09-03T10:04:57.000Z,37.8
2022-09-03T10:06:14.000Z,37.8
2022-09-03T10:07:30.000Z,37.2
2022-09-03T10:08:47.000Z,38.5
2022-09-03T10:10:03.000Z,37.8
2022-09-03T10:11:20.000Z,38.3
2022-09-03T10:12:36.000Z,39.4
2022-09-03T10:13:52.000Z,39.2
2022-09-03T10:15:09.000Z,39.3
2022-09-03T10:16:25.000Z,40.5
2022-09-03T10:17:42.000Z,41.7
2022-09-03T10:18:58.000Z,41.1
2022-09-03T10:20:15.000Z,40.7
2022-09-03T10:21:31.000Z,40.3
2022-09-03T10:24:04.000Z,39.4
2022-09-03T10:25:21.000Z,39.5
2022-09-03T10:26:37.000Z,39.1
2022-09-03T10:27:53.000Z,38.8
2022-09-03T10:29:09.000Z,37.9
2022-09-03T10:30:26.000Z,38
2022-09-03T10:31:42.000Z,37.9
2022-09-03T10:32:59.000Z,37.4
2022-09-03T10:34:15.000Z,38.3
2022-09-03T10:35:32.000Z,38.3
2022-09-03T10:36:48.000Z,39.9
2022-09-03T10:38:05.000Z,40.1
2022-09-03T10:39:21.000Z,40.2
2022-09-03T10:40:38.000Z,41.2
2022-09-03T10:41:54.000Z,41.4
2022-09-03T10:43:11.000Z,41.3
2022-09-03T10:44:27.000Z,41.8
2022-09-03T10:45:43.000Z,42.6
2022-09-03T10:46:59.000Z,42.2
2022-09-03T10:48:16.000Z,41.6
2022-09-03T10:49:32.000Z,41
2022-09-03T10:50:49.000Z,40.7
2022-09-03T10:52:05.000Z,41.5
2022-09-03T10:53:22.000Z,42.4
2022-09-03T10:54:38.000Z,41
2022-09-03T10:55:55.000Z,41.7
2022-09-03T10:59:44.000Z,40.6
2022-09-03T11:01:00.000Z,41.6
2022-09-03T11:02:17.000Z,42.4
2022-09-03T11:03:33.000Z,40.7
2022-09-03T11:04:49.000Z,41.9
2022-09-03T11:06:06.000Z,43.3
2022-09-03T11:07:22.000Z,42.4
2022-09-03T11:08:39.000Z,41.9
2022-09-03T11:09:55.000Z,42
2022-09-03T11:11:12.000Z,42.3
2022-09-03T11:12:28.000Z,42.2
2022-09-03T11:13:45.000Z,43.1
2022-09-03T11:15:01.000Z,41.9
2022-09-03T11:16:18.000Z,41.5
2022-09-03T11:17:34.000Z,42.1
2022-09-03T11:18:51.000Z,42.6
2022-09-03T11:22:40.000Z,42.4
2022-09-03T11:23:56.000Z,42.2
2022-09-03T11:25:12.000Z,43.5
2022-09-03T11:26:28.000Z,42.3
2022-09-03T11:29:01.000Z,43
2022-09-03T11:30:18.000Z,42.8
2022-09-03T11:31:34.000Z,43.2
2022-09-03T11:32:51.000Z,43.6
2022-09-03T11:34:07.000Z,43
2022-09-03T11:35:24.000Z,42.5
2022-09-03T11:36:40.000Z,43
2022-09-03T11:37:57.000Z,43.3
2022-09-03T11:39:13.000Z,42.2
2022-09-03T11:40:30.000Z,42
2022-09-03T11:41:46.000Z,42.8
2022-09-03T11:43:02.000Z,43.1
2022-09-03T11:44:19.000Z,43.9
2022-09-03T11:45:35.000Z,43.3
2022-09-03T11:46:52.000Z,43.3
2022-09-03T11:49:25.000Z,43.2
2022-09-03T11:50:41.000Z,44.3
2022-09-03T11:51:58.000Z,45.5
2022-09-03T11:53:14.000Z,45.4
2022-09-03T11:54:30.000Z,45.2
2022-09-03T11:55:47.000Z,45.7
2022-09-03T11:57:03.000Z,46
2022-09-03T11:58:19.000Z,44.6
2022-09-03T11:59:35.000Z,44.2
2022-09-03T12:00:52.000Z,44.3
2022-09-03T12:02:08.000Z,43.9
2022-09-03T12:03:25.000Z,44.7
2022-09-03T12:04:41.000Z,44.5
2022-09-03T12:05:57.000Z,44.9
2022-09-03T12:07:13.000Z,44.6
2022-09-03T12:08:30.000Z,44.4
2022-09-03T12:09:46.000Z,43.8
2022-09-03T12:12:19.000Z,45.1
2022-09-03T12:13:36.000Z,44.3
2022-09-03T12:14:52.000Z,44.6
2022-09-03T12:16:09.000Z,45.1
2022-09-03T12:17:25.000Z,44.8
2022-09-03T12:18:42.000Z,45.6
2022-09-03T12:19:58.000Z,44.7
2022-09-03T12:21:15.000Z,45
2022-09-03T12:22:31.000Z,43.6
2022-09-03T12:23:48.000Z,43.6
2022-09-03T12:25:04.000Z,43.8
2022-09-03T12:26:20.000Z,42.7
2022-09-03T12:27:36.000Z,42.5
2022-09-03T12:28:53.000Z,42
2022-09-03T12:30:09.000Z,43.2
2022-09-03T12:31:26.000Z,42.7
2022-09-03T12:33:59.000Z,42.9
2022-09-03T12:36:32.000Z,42.7
2022-09-03T12:37:48.000Z,43.3
2022-09-03T12:39:04.000Z,42.9
2022-09-03T12:40:21.000Z,43.4
2022-09-03T12:41:37.000Z,44.1
2022-09-03T12:42:54.000Z,43.6
2022-09-03T12:44:09.000Z,44.2
2022-09-03T12:45:26.000Z,44.4
2022-09-03T12:46:42.000Z,44.7
2022-09-03T12:47:59.000Z,44.4
2022-09-03T12:49:15.000Z,44.4
2022-09-03T12:50:32.000Z,44.7
2022-09-03T12:51:48.000Z,44.3
2022-09-03T12:53:05.000Z,44.2
2022-09-03T12:54:21.000Z,43.6
2022-09-03T12:55:38.000Z,43.1
2022-09-03T12:56:53.000Z,43.3
2022-09-03T12:58:10.000Z,42.7
2022-09-03T12:59:26.000Z,43.5
2022-09-03T13:00:43.000Z,43.6
2022-09-03T13:01:59.000Z,42.5
2022-09-03T13:03:16.000Z,41.9
2022-09-03T13:04:32.000Z,42.8
2022-09-03T13:05:48.000Z,41.7
2022-09-03T13:07:05.000Z,42.4
2022-09-03T13:08:21.000Z,42.8
2022-09-03T13:09:37.000Z,43.1
2022-09-03T13:10:54.000Z,42.5
2022-09-03T13:12:10.000Z,41.4
2022-09-03T13:14:43.000Z,40.9
2022-09-03T13:16:00.000Z,41.6
2022-09-03T13:17:16.000Z,40.6
2022-09-03T13:18:33.000Z,42
2022-09-03T13:19:49.000Z,41.9
2022-09-03T13:21:06.000Z,41.6
2022-09-03T13:22:22.000Z,41.1
2022-09-03T13:23:39.000Z,41.7
2022-09-03T13:24:55.000Z,42
2022-09-03T13:26:11.000Z,40.5
2022-09-03T13:27:27.000Z,41
2022-09-03T13:28:44.000Z,40.9
2022-09-03T13:30:00.000Z,41.4
2022-09-03T13:31:17.000Z,40.9
2022-09-03T13:32:33.000Z,40.1
2022-09-03T13:33:50.000Z,40.7
2022-09-03T13:35:06.000Z,40
2022-09-03T13:37:39.000Z,40.2
2022-09-03T13:38:56.000Z,39.6
2022-09-03T13:40:12.000Z,40.6
2022-09-03T13:41:29.000Z,40.2
2022-09-03T13:42:45.000Z,40.4
2022-09-03T13:44:01.000Z,40.4
2022-09-03T13:45:17.000Z,39.8
2022-09-03T13:46:34.000Z,40
2022-09-03T13:47:50.000Z,40.2
2022-09-03T13:49:07.000Z,39.8
2022-09-03T13:50:23.000Z,40.3
2022-09-03T13:52:56.000Z,39.3
2022-09-03T13:54:13.000Z,39.2
2022-09-03T13:55:29.000Z,40.8
2022-09-03T13:56:46.000Z,40.9
2022-09-03T13:58:02.000Z,40.2
2022-09-03T14:00:35.000Z,41.2
2022-09-03T14:01:52.000Z,41.3
2022-09-03T14:03:08.000Z,42.3
2022-09-03T14:04:25.000Z,41.2
2022-09-03T14:05:41.000Z,41.5
2022-09-03T14:06:58.000Z,41.7
2022-09-03T14:08:13.000Z,41
2022-09-03T14:09:30.000Z,40.6
2022-09-03T14:10:46.000Z,41.6
2022-09-03T14:12:03.000Z,41.5
2022-09-03T14:13:19.000Z,42
2022-09-03T14:14:36.000Z,40.9
2022-09-03T14:15:52.000Z,40.9
2022-09-03T14:17:09.000Z,40.6
2022-09-03T14:18:25.000Z,41.3
2022-09-03T14:19:42.000Z,41.6
2022-09-03T14:20:58.000Z,42.2
2022-09-03T14:22:15.000Z,40.5
2022-09-03T14:23:31.000Z,41
2022-09-03T14:24:48.000Z,41.4
2022-09-03T14:26:04.000Z,41.4
2022-09-03T14:27:21.000Z,42.2
2022-09-03T14:28:37.000Z,43.6
2022-09-03T14:29:53.000Z,42.6
2022-09-03T14:31:10.000Z,41.9
2022-09-03T14:32:26.000Z,42.8
2022-09-03T14:33:42.000Z,42.8
2022-09-03T14:34:59.000Z,43.5
2022-09-03T14:36:15.000Z,44.6
2022-09-03T14:37:32.000Z,44.4
2022-09-03T14:38:48.000Z,45.3
2022-09-03T14:40:05.000Z,45.1
2022-09-03T14:41:21.000Z,46.7
2022-09-03T14:42:38.000Z,46.7
2022-09-03T14:43:54.000Z,46.4
2022-09-03T14:45:11.000Z,46.1
2022-09-03T14:47:43.000Z,45.6
2022-09-03T14:49:00.000Z,45
2022-09-03T14:50:16.000Z,46.1
2022-09-03T14:51:32.000Z,45.4
2022-09-03T14:52:49.000Z,46
2022-09-03T14:54:05.000Z,45.7
2022-09-03T14:55:22.000Z,45.4
2022-09-03T14:56:38.000Z,44.7
2022-09-03T14:57:55.000Z,44.4
2022-09-03T14:59:11.000Z,44.5
2022-09-03T15:00:28.000Z,44.3
2022-09-03T15:01:44.000Z,44.4
2022-09-03T15:03:00.000Z,44.6
2022-09-03T15:04:17.000Z,44.7
2022-09-03T15:05:33.000Z,45.1
2022-09-03T15:06:50.000Z,44.8
2022-09-03T15:08:06.000Z,45.2
2022-09-03T15:11:56.000Z,45.5
2022-09-03T15:13:12.000Z,45.3
2022-09-03T15:14:28.000Z,45
2022-09-03T15:15:45.000Z,45.1
2022-09-03T15:17:01.000Z,45.7
2022-09-03T15:18:17.000Z,45.6
2022-09-03T15:19:33.000Z,44.9
2022-09-03T15:22:06.000Z,44.9
2022-09-03T15:23:23.000Z,44.4
2022-09-03T15:25:56.000Z,45.2
2022-09-03T15:27:12.000Z,45.7
2022-09-03T15:29:45.000Z,45.3
2022-09-03T15:31:02.000Z,45.8
2022-09-03T15:32:18.000Z,45.7
2022-09-03T15:34:51.000Z,44.9
2022-09-03T15:36:08.000Z,45.4
2022-09-03T15:37:24.000Z,45.6
2022-09-03T15:38:41.000Z,45.7
2022-09-03T15:39:57.000Z,45.3
2022-09-03T15:41:13.000Z,44.8
2022-09-03T15:42:30.000Z,44.8
2022-09-03T15:43:46.000Z,45
2022-09-03T15:45:02.000Z,45.7
2022-09-03T15:46:19.000Z,44.7
2022-09-03T15:47:35.000Z,44.8
2022-09-03T15:48:52.000Z,44.8
2022-09-03T15:50:08.000Z,44.6
2022-09-03T15:51:25.000Z,45.4
2022-09-03T15:52:40.000Z,45
2022-09-03T15:53:57.000Z,44.9
2022-09-03T15:55:13.000Z,46
2022-09-03T15:56:30.000Z,45.4
2022-09-03T15:57:46.000Z,45.6
2022-09-03T15:59:03.000Z,45.6
2022-09-03T16:00:19.000Z,45.4
2022-09-03T16:01:36.000Z,45.3
2022-09-03T16:02:52.000Z,45
2022-09-03T16:04:09.000Z,45.4
2022-09-03T16:05:25.000Z,45.6
2022-09-03T16:06:41.000Z,45.7
2022-09-03T16:07:58.000Z,45.9
2022-09-03T16:10:30.000Z,47.4
2022-09-03T16:11:47.000Z,47.7
2022-09-03T16:13:03.000Z,47
2022-09-03T16:15:36.000Z,47
2022-09-03T16:16:53.000Z,47.3
2022-09-03T16:18:09.000Z,47.5
2022-09-03T16:20:42.000Z,47
2022-09-03T16:21:58.000Z,47.8
2022-09-03T16:23:15.000Z,47.4
2022-09-03T16:25:47.000Z,47.4
2022-09-03T16:27:04.000Z,47.5
2022-09-03T16:28:20.000Z,47.4
2022-09-03T16:29:37.000Z,47.4
2022-09-03T16:30:53.000Z,46.9
2022-09-03T16:32:10.000Z,47.1
2022-09-03T16:33:26.000Z,47
2022-09-03T16:34:42.000Z,46.8
2022-09-03T16:35:58.000Z,47
2022-09-03T16:38:31.000Z,47.1
2022-09-03T16:39:47.000Z,47.1
2022-09-03T16:41:04.000Z,47.1
2022-09-03T16:42:20.000Z,47.5
2022-09-03T16:44:53.000Z,47.1
2022-09-03T16:46:10.000Z,47.2
2022-09-03T16:47:26.000Z,47.3
2022-09-03T16:48:43.000Z,47.5
2022-09-03T16:49:59.000Z,47.8
2022-09-03T16:52:32.000Z,47.3
2022-09-03T16:53:49.000Z,47.4
2022-09-03T16:55:04.000Z,47.8
2022-09-03T16:56:21.000Z,47.6
2022-09-03T16:57:37.000Z,47.6
2022-09-03T17:00:10.000Z,47.8
2022-09-03T17:01:27.000Z,47.1
2022-09-03T17:02:43.000Z,47.2
2022-09-03T17:04:00.000Z,47.2
2022-09-03T17:05:16.000Z,48.2
2022-09-03T17:06:33.000Z,47.6
2022-09-03T17:07:49.000Z,47.9
2022-09-03T17:09:06.000Z,47.8
2022-09-03T17:10:22.000Z,48.3
2022-09-03T17:11:39.000Z,47.9
2022-09-03T17:12:55.000Z,48.2
2022-09-03T17:15:28.000Z,48.2
2022-09-03T17:16:44.000Z,47.6
2022-09-03T17:18:00.000Z,47.7
2022-09-03T17:19:17.000Z,47.8
2022-09-03T17:20:33.000Z,47.7
2022-09-03T17:21:50.000Z,47.6
2022-09-03T17:23:06.000Z,47.5
2022-09-03T17:24:23.000Z,47.6
2022-09-03T17:26:56.000Z,47.7
2022-09-03T17:28:12.000Z,48
2022-09-03T17:29:29.000Z,47.8
2022-09-03T17:30:45.000Z,48.2
2022-09-03T17:32:02.000Z,48.4
2022-09-03T17:33:18.000Z,48.3
2022-09-03T17:34:34.000Z,47.9
2022-09-03T17:35:50.000Z,48.3
2022-09-03T17:37:07.000Z,47.8
2022-09-03T17:38:23.000Z,47.9
2022-09-03T17:39:40.000Z,47.8
2022-09-03T17:42:13.000Z,48.3
2022-09-03T17:43:29.000Z,48.2
2022-09-03T17:44:46.000Z,48.5
2022-09-03T17:46:02.000Z,48.3
2022-09-03T17:47:19.000Z,48.3
2022-09-03T17:48:35.000Z,48.3
2022-09-03T17:49:52.000Z,48.1
2022-09-03T17:52:25.000Z,48.4
2022-09-03T17:53:41.000Z,48.6
2022-09-03T17:54:57.000Z,48.8
2022-09-03T17:57:30.000Z,48.8
2022-09-03T18:00:03.000Z,49.3
2022-09-03T18:01:20.000Z,49.1
2022-09-03T18:02:36.000Z,48.9
2022-09-03T18:03:52.000Z,49.4
2022-09-03T18:05:09.000Z,49.5
2022-09-03T18:06:25.000Z,49.1
2022-09-03T18:07:42.000Z,49.7
2022-09-03T18:08:58.000Z,50.2
2022-09-03T18:10:15.000Z,50
2022-09-03T18:11:31.000Z,50.4
2022-09-03T18:12:47.000Z,50
2022-09-03T18:14:04.000Z,50.3
2022-09-03T18:15:20.000Z,50.1
2022-09-03T18:16:37.000Z,50.5
2022-09-03T18:17:53.000Z,50.3
2022-09-03T18:19:10.000Z,51.2
2022-09-03T18:20:26.000Z,50.6
2022-09-03T18:21:43.000Z,51.5
2022-09-03T18:22:59.000Z,50.9
2022-09-03T18:24:15.000Z,51
2022-09-03T18:25:31.000Z,51
2022-09-03T18:26:47.000Z,51.2
2022-09-03T18:28:04.000Z,51.2
2022-09-03T18:29:20.000Z,51.3
2022-09-03T18:30:37.000Z,51.2
2022-09-03T18:31:53.000Z,51.7
2022-09-03T18:33:10.000Z,51.9
2022-09-03T18:34:26.000Z,52.4
2022-09-03T18:35:43.000Z,52.3
2022-09-03T18:36:59.000Z,51.8
2022-09-03T18:38:16.000Z,52.1
2022-09-03T18:39:32.000Z,52.7
2022-09-03T18:40:49.000Z,52.1
2022-09-03T18:42:05.000Z,52.3
2022-09-03T18:43:22.000Z,52.9
2022-09-03T18:44:38.000Z,53.1
2022-09-03T18:45:55.000Z,52.3
2022-09-03T18:47:11.000Z,52.1
2022-09-03T18:48:27.000Z,53
2022-09-03T18:49:43.000Z,52.4
2022-09-03T18:51:00.000Z,53.1
2022-09-03T18:52:16.000Z,52.7
2022-09-03T18:53:33.000Z,52.3
2022-09-03T18:54:49.000Z,51.9
2022-09-03T18:56:06.000Z,52.7
2022-09-03T18:57:22.000Z,52
2022-09-03T18:58:39.000Z,53.1
2022-09-03T18:59:55.000Z,52.7
2022-09-03T19:01:12.000Z,52.1
2022-09-03T19:02:28.000Z,52.5
2022-09-03T19:03:45.000Z,52.1
2022-09-03T19:05:01.000Z,52.3
2022-09-03T19:06:18.000Z,52.2
2022-09-03T19:07:34.000Z,52.1
2022-09-03T19:08:50.000Z,52.8
2022-09-03T19:10:06.000Z,52.5
2022-09-03T19:11:23.000Z,52.2
2022-09-03T19:12:39.000Z,52.5
2022-09-03T19:13:56.000Z,52.4
2022-09-03T19:15:12.000Z,53.1
2022-09-03T19:16:29.000Z,52.7
2022-09-03T19:17:45.000Z,52.9
2022-09-03T19:19:02.000Z,52.5